sensor_id;sensor_type;location;lat;lon;timestamp;P1;durP1;ratioP1;P2;durP2;ratioP2
23800;SDS011;12081;48.614;10.226;2022-11-20T00:02:19;4.97;;;3.53;;
23800;SDS011;12081;48.614;10.226;2022-11-20T00:05:03;4.30;;;3.60;;
23800;SDS011;12081;48.614;10.226;2022-11-20T00:07:48;4.13;;;3.20;;
23800;SDS011;12081;48.614;10.226;2022-11-20T00:10:31;5.37;;;3.50;;
23800;SDS011;12081;48.614;10.226;2022-11-20T00:13:15;4.67;;;3.73;;
23800;SDS011;12081;48.614;10.226;2022-11-20T00:16:00;5.00;;;3.13;;
23800;SDS011;12081;48.614;10.226;2022-11-20T00:18:46;4.13;;;3.30;;
23800;SDS011;12081;48.614;10.226;2022-11-20T00:21:30;3.97;;;3.33;;
23800;SDS011;12081;48.614;10.226;2022-11-20T00:24:15;4.37;;;3.33;;
23800;SDS011;12081;48.614;10.226;2022-11-20T00:26:58;3.77;;;3.33;;
23800;SDS011;12081;48.614;10.226;2022-11-20T00:29:42;5.90;;;3.53;;
23800;SDS011;12081;48.614;10.226;2022-11-20T00:32:26;4.87;;;3.40;;
23800;SDS011;12081;48.614;10.226;2022-11-20T00:35:11;5.73;;;3.80;;
23800;SDS011;12081;48.614;10.226;2022-11-20T00:37:55;4.30;;;3.50;;
23800;SDS011;12081;48.614;10.226;2022-11-20T00:40:39;7.73;;;3.60;;
23800;SDS011;12081;48.614;10.226;2022-11-20T00:43:23;4.23;;;3.00;;
23800;SDS011;12081;48.614;10.226;2022-11-20T00:46:09;3.60;;;3.17;;
23800;SDS011;12081;48.614;10.226;2022-11-20T00:48:56;6.30;;;3.60;;
23800;SDS011;12081;48.614;10.226;2022-11-20T00:51:40;5.97;;;3.17;;
23800;SDS011;12081;48.614;10.226;2022-11-20T00:54:25;5.00;;;4.00;;
23800;SDS011;12081;48.614;10.226;2022-11-20T00:57:09;6.20;;;3.73;;
23800;SDS011;12081;48.614;10.226;2022-11-20T00:59:53;6.23;;;3.90;;
23800;SDS011;12081;48.614;10.226;2022-11-20T01:02:37;6.60;;;4.20;;
23800;SDS011;12081;48.614;10.226;2022-11-20T01:05:21;6.37;;;4.60;;
23800;SDS011;12081;48.614;10.226;2022-11-20T01:08:05;7.00;;;4.23;;
23800;SDS011;12081;48.614;10.226;2022-11-20T01:10:49;5.57;;;4.47;;
23800;SDS011;12081;48.614;10.226;2022-11-20T01:13:34;7.37;;;4.17;;
23800;SDS011;12081;48.614;10.226;2022-11-20T01:16:23;5.37;;;3.80;;
23800;SDS011;12081;48.614;10.226;2022-11-20T01:19:13;4.47;;;3.77;;
23800;SDS011;12081;48.614;10.226;2022-11-20T01:21:59;5.07;;;4.20;;
23800;SDS011;12081;48.614;10.226;2022-11-20T01:24:44;5.77;;;4.03;;
23800;SDS011;12081;48.614;10.226;2022-11-20T01:27:28;6.73;;;4.53;;
23800;SDS011;12081;48.614;10.226;2022-11-20T01:30:12;6.73;;;4.43;;
23800;SDS011;12081;48.614;10.226;2022-11-20T01:32:56;6.20;;;4.13;;
23800;SDS011;12081;48.614;10.226;2022-11-20T01:35:40;5.13;;;4.23;;
23800;SDS011;12081;48.614;10.226;2022-11-20T01:38:24;4.77;;;3.83;;
23800;SDS011;12081;48.614;10.226;2022-11-20T01:41:09;6.20;;;4.57;;
23800;SDS011;12081;48.614;10.226;2022-11-20T01:44:16;4.97;;;4.10;;
23800;SDS011;12081;48.614;10.226;2022-11-20T01:47:02;5.80;;;4.63;;
23800;SDS011;12081;48.614;10.226;2022-11-20T01:49:51;6.30;;;4.20;;
23800;SDS011;12081;48.614;10.226;2022-11-20T01:52:41;4.80;;;3.97;;
23800;SDS011;12081;48.614;10.226;2022-11-20T01:55:30;5.17;;;4.30;;
23800;SDS011;12081;48.614;10.226;2022-11-20T01:58:18;6.57;;;3.43;;
23800;SDS011;12081;48.614;10.226;2022-11-20T02:01:06;8.03;;;4.33;;
23800;SDS011;12081;48.614;10.226;2022-11-20T02:03:50;4.47;;;3.70;;
23800;SDS011;12081;48.614;10.226;2022-11-20T02:06:35;5.33;;;4.53;;
23800;SDS011;12081;48.614;10.226;2022-11-20T02:09:25;5.97;;;5.13;;
23800;SDS011;12081;48.614;10.226;2022-11-20T02:12:10;6.43;;;4.83;;
23800;SDS011;12081;48.614;10.226;2022-11-20T02:15:14;6.30;;;5.07;;
23800;SDS011;12081;48.614;10.226;2022-11-20T02:17:58;6.80;;;5.07;;
23800;SDS011;12081;48.614;10.226;2022-11-20T02:20:43;6.77;;;5.37;;
23800;SDS011;12081;48.614;10.226;2022-11-20T02:26:41;5.70;;;4.47;;
23800;SDS011;12081;48.614;10.226;2022-11-20T02:29:37;9.40;;;5.03;;
23800;SDS011;12081;48.614;10.226;2022-11-20T02:32:32;5.40;;;4.40;;
23800;SDS011;12081;48.614;10.226;2022-11-20T02:38:02;9.37;;;5.50;;
23800;SDS011;12081;48.614;10.226;2022-11-20T02:40:46;6.57;;;5.63;;
23800;SDS011;12081;48.614;10.226;2022-11-20T02:43:30;7.30;;;5.53;;
23800;SDS011;12081;48.614;10.226;2022-11-20T02:46:14;7.07;;;5.07;;
23800;SDS011;12081;48.614;10.226;2022-11-20T02:48:58;5.87;;;4.37;;
23800;SDS011;12081;48.614;10.226;2022-11-20T02:51:44;7.40;;;4.83;;
23800;SDS011;12081;48.614;10.226;2022-11-20T02:54:28;7.73;;;5.37;;
23800;SDS011;12081;48.614;10.226;2022-11-20T02:57:12;6.20;;;5.10;;
23800;SDS011;12081;48.614;10.226;2022-11-20T02:59:57;7.30;;;5.50;;
23800;SDS011;12081;48.614;10.226;2022-11-20T03:02:42;8.20;;;5.40;;
23800;SDS011;12081;48.614;10.226;2022-11-20T03:05:26;6.83;;;5.13;;
23800;SDS011;12081;48.614;10.226;2022-11-20T03:08:10;5.50;;;4.27;;
23800;SDS011;12081;48.614;10.226;2022-11-20T03:10:54;6.43;;;4.97;;
23800;SDS011;12081;48.614;10.226;2022-11-20T03:13:38;6.57;;;4.40;;
23800;SDS011;12081;48.614;10.226;2022-11-20T03:16:23;5.83;;;5.17;;
23800;SDS011;12081;48.614;10.226;2022-11-20T03:19:07;5.70;;;3.93;;
23800;SDS011;12081;48.614;10.226;2022-11-20T03:21:51;7.63;;;3.97;;
23800;SDS011;12081;48.614;10.226;2022-11-20T03:24:35;6.17;;;5.00;;
23800;SDS011;12081;48.614;10.226;2022-11-20T03:27:20;6.17;;;4.73;;
23800;SDS011;12081;48.614;10.226;2022-11-20T03:30:04;7.83;;;4.27;;
23800;SDS011;12081;48.614;10.226;2022-11-20T03:32:52;5.77;;;4.47;;
23800;SDS011;12081;48.614;10.226;2022-11-20T03:35:37;4.80;;;4.10;;
23800;SDS011;12081;48.614;10.226;2022-11-20T03:38:21;6.83;;;4.70;;
23800;SDS011;12081;48.614;10.226;2022-11-20T03:41:12;5.80;;;4.30;;
23800;SDS011;12081;48.614;10.226;2022-11-20T03:44:02;6.20;;;4.03;;
23800;SDS011;12081;48.614;10.226;2022-11-20T03:46:48;6.00;;;4.17;;
23800;SDS011;12081;48.614;10.226;2022-11-20T03:49:32;5.63;;;4.50;;
23800;SDS011;12081;48.614;10.226;2022-11-20T03:52:16;5.63;;;4.60;;
23800;SDS011;12081;48.614;10.226;2022-11-20T03:55:01;5.53;;;4.43;;
23800;SDS011;12081;48.614;10.226;2022-11-20T03:57:45;8.57;;;4.23;;
23800;SDS011;12081;48.614;10.226;2022-11-20T04:00:29;7.00;;;4.40;;
23800;SDS011;12081;48.614;10.226;2022-11-20T04:03:13;7.13;;;4.40;;
23800;SDS011;12081;48.614;10.226;2022-11-20T04:06:05;7.20;;;4.53;;
23800;SDS011;12081;48.614;10.226;2022-11-20T04:08:50;5.43;;;4.43;;
23800;SDS011;12081;48.614;10.226;2022-11-20T04:11:36;5.77;;;4.00;;
23800;SDS011;12081;48.614;10.226;2022-11-20T04:14:22;6.50;;;4.43;;
23800;SDS011;12081;48.614;10.226;2022-11-20T04:17:07;9.70;;;4.20;;
23800;SDS011;12081;48.614;10.226;2022-11-20T04:19:50;7.33;;;4.70;;
23800;SDS011;12081;48.614;10.226;2022-11-20T04:22:35;5.87;;;4.20;;
23800;SDS011;12081;48.614;10.226;2022-11-20T04:25:22;5.90;;;4.10;;
23800;SDS011;12081;48.614;10.226;2022-11-20T04:28:06;6.77;;;4.50;;
23800;SDS011;12081;48.614;10.226;2022-11-20T04:30:50;5.13;;;4.23;;
23800;SDS011;12081;48.614;10.226;2022-11-20T04:33:34;5.40;;;4.07;;
23800;SDS011;12081;48.614;10.226;2022-11-20T04:36:22;6.07;;;4.20;;
23800;SDS011;12081;48.614;10.226;2022-11-20T04:39:11;5.53;;;4.27;;
23800;SDS011;12081;48.614;10.226;2022-11-20T04:41:56;5.83;;;4.40;;
23800;SDS011;12081;48.614;10.226;2022-11-20T04:44:59;8.60;;;4.27;;
23800;SDS011;12081;48.614;10.226;2022-11-20T04:47:43;6.60;;;4.10;;
23800;SDS011;12081;48.614;10.226;2022-11-20T04:50:27;7.33;;;4.10;;
23800;SDS011;12081;48.614;10.226;2022-11-20T04:53:11;7.03;;;4.10;;
23800;SDS011;12081;48.614;10.226;2022-11-20T04:55:59;8.60;;;4.33;;
23800;SDS011;12081;48.614;10.226;2022-11-20T04:58:44;5.57;;;4.37;;
23800;SDS011;12081;48.614;10.226;2022-11-20T05:01:28;7.53;;;3.77;;
23800;SDS011;12081;48.614;10.226;2022-11-20T05:04:13;7.93;;;4.03;;
23800;SDS011;12081;48.614;10.226;2022-11-20T05:06:57;7.27;;;4.53;;
23800;SDS011;12081;48.614;10.226;2022-11-20T05:09:41;5.77;;;4.50;;
23800;SDS011;12081;48.614;10.226;2022-11-20T05:12:25;6.20;;;4.30;;
23800;SDS011;12081;48.614;10.226;2022-11-20T05:15:09;3.80;;;3.40;;
23800;SDS011;12081;48.614;10.226;2022-11-20T05:17:53;5.50;;;3.90;;
23800;SDS011;12081;48.614;10.226;2022-11-20T05:20:39;4.73;;;3.83;;
23800;SDS011;12081;48.614;10.226;2022-11-20T05:23:23;4.70;;;3.60;;
23800;SDS011;12081;48.614;10.226;2022-11-20T05:26:08;5.10;;;3.53;;
23800;SDS011;12081;48.614;10.226;2022-11-20T05:29:01;5.57;;;3.50;;
23800;SDS011;12081;48.614;10.226;2022-11-20T05:31:45;5.50;;;3.53;;
23800;SDS011;12081;48.614;10.226;2022-11-20T05:34:29;6.33;;;3.83;;
23800;SDS011;12081;48.614;10.226;2022-11-20T05:37:13;8.13;;;4.53;;
23800;SDS011;12081;48.614;10.226;2022-11-20T05:39:57;8.03;;;3.57;;
23800;SDS011;12081;48.614;10.226;2022-11-20T05:42:41;5.40;;;3.77;;
23800;SDS011;12081;48.614;10.226;2022-11-20T05:45:27;7.23;;;3.80;;
23800;SDS011;12081;48.614;10.226;2022-11-20T05:48:11;6.53;;;3.83;;
23800;SDS011;12081;48.614;10.226;2022-11-20T05:50:59;7.50;;;4.00;;
23800;SDS011;12081;48.614;10.226;2022-11-20T05:53:44;6.07;;;3.50;;
23800;SDS011;12081;48.614;10.226;2022-11-20T05:56:29;8.53;;;4.00;;
23800;SDS011;12081;48.614;10.226;2022-11-20T05:59:13;7.10;;;4.60;;
23800;SDS011;12081;48.614;10.226;2022-11-20T06:01:57;6.43;;;3.73;;
23800;SDS011;12081;48.614;10.226;2022-11-20T06:04:41;6.27;;;3.63;;
23800;SDS011;12081;48.614;10.226;2022-11-20T06:07:25;5.87;;;3.67;;
23800;SDS011;12081;48.614;10.226;2022-11-20T06:10:10;4.63;;;3.47;;
23800;SDS011;12081;48.614;10.226;2022-11-20T06:12:56;6.47;;;4.10;;
23800;SDS011;12081;48.614;10.226;2022-11-20T06:15:41;4.63;;;3.50;;
23800;SDS011;12081;48.614;10.226;2022-11-20T06:18:26;6.73;;;3.83;;
23800;SDS011;12081;48.614;10.226;2022-11-20T06:21:12;6.83;;;4.23;;
23800;SDS011;12081;48.614;10.226;2022-11-20T06:24:01;4.63;;;3.67;;
23800;SDS011;12081;48.614;10.226;2022-11-20T06:26:45;5.97;;;3.90;;
23800;SDS011;12081;48.614;10.226;2022-11-20T06:29:29;4.57;;;3.23;;
23800;SDS011;12081;48.614;10.226;2022-11-20T06:32:16;7.10;;;3.50;;
23800;SDS011;12081;48.614;10.226;2022-11-20T06:35:00;5.80;;;3.80;;
23800;SDS011;12081;48.614;10.226;2022-11-20T06:37:44;7.67;;;4.10;;
23800;SDS011;12081;48.614;10.226;2022-11-20T06:40:28;6.10;;;3.70;;
23800;SDS011;12081;48.614;10.226;2022-11-20T06:43:12;6.40;;;3.90;;
23800;SDS011;12081;48.614;10.226;2022-11-20T06:45:56;6.17;;;3.83;;
23800;SDS011;12081;48.614;10.226;2022-11-20T06:48:41;7.63;;;4.37;;
23800;SDS011;12081;48.614;10.226;2022-11-20T06:51:26;17.00;;;11.57;;
23800;SDS011;12081;48.614;10.226;2022-11-20T06:54:10;18.97;;;11.00;;
23800;SDS011;12081;48.614;10.226;2022-11-20T06:56:54;11.43;;;6.30;;
23800;SDS011;12081;48.614;10.226;2022-11-20T06:59:38;9.40;;;5.13;;
23800;SDS011;12081;48.614;10.226;2022-11-20T07:02:22;7.53;;;4.80;;
23800;SDS011;12081;48.614;10.226;2022-11-20T07:05:06;5.67;;;4.03;;
23800;SDS011;12081;48.614;10.226;2022-11-20T07:07:55;5.87;;;3.80;;
23800;SDS011;12081;48.614;10.226;2022-11-20T07:10:43;7.77;;;4.23;;
23800;SDS011;12081;48.614;10.226;2022-11-20T07:13:27;7.00;;;4.60;;
23800;SDS011;12081;48.614;10.226;2022-11-20T07:16:12;5.10;;;3.97;;
23800;SDS011;12081;48.614;10.226;2022-11-20T07:18:56;6.20;;;4.00;;
23800;SDS011;12081;48.614;10.226;2022-11-20T07:21:40;6.47;;;4.30;;
23800;SDS011;12081;48.614;10.226;2022-11-20T07:24:24;5.60;;;4.30;;
23800;SDS011;12081;48.614;10.226;2022-11-20T07:27:08;6.37;;;4.40;;
23800;SDS011;12081;48.614;10.226;2022-11-20T07:29:52;6.60;;;4.43;;
23800;SDS011;12081;48.614;10.226;2022-11-20T07:32:36;7.33;;;4.70;;
23800;SDS011;12081;48.614;10.226;2022-11-20T07:35:20;6.03;;;4.77;;
23800;SDS011;12081;48.614;10.226;2022-11-20T07:38:05;5.10;;;4.37;;
23800;SDS011;12081;48.614;10.226;2022-11-20T07:40:52;6.30;;;5.30;;
23800;SDS011;12081;48.614;10.226;2022-11-20T07:43:38;6.23;;;5.00;;
23800;SDS011;12081;48.614;10.226;2022-11-20T07:46:22;8.37;;;5.43;;
23800;SDS011;12081;48.614;10.226;2022-11-20T07:49:07;6.97;;;5.73;;
23800;SDS011;12081;48.614;10.226;2022-11-20T07:51:51;6.03;;;5.30;;
23800;SDS011;12081;48.614;10.226;2022-11-20T07:54:37;6.33;;;5.07;;
23800;SDS011;12081;48.614;10.226;2022-11-20T07:57:21;6.77;;;5.10;;
23800;SDS011;12081;48.614;10.226;2022-11-20T08:00:05;6.13;;;5.37;;
23800;SDS011;12081;48.614;10.226;2022-11-20T08:02:54;6.83;;;4.90;;
23800;SDS011;12081;48.614;10.226;2022-11-20T08:05:38;7.00;;;5.13;;
23800;SDS011;12081;48.614;10.226;2022-11-20T08:08:23;6.90;;;5.47;;
23800;SDS011;12081;48.614;10.226;2022-11-20T08:11:07;7.60;;;5.40;;
23800;SDS011;12081;48.614;10.226;2022-11-20T08:14:10;7.90;;;5.17;;
23800;SDS011;12081;48.614;10.226;2022-11-20T08:16:57;6.53;;;5.03;;
23800;SDS011;12081;48.614;10.226;2022-11-20T08:19:41;5.50;;;5.00;;
23800;SDS011;12081;48.614;10.226;2022-11-20T08:22:25;7.10;;;5.50;;
23800;SDS011;12081;48.614;10.226;2022-11-20T08:25:09;8.87;;;5.43;;
23800;SDS011;12081;48.614;10.226;2022-11-20T08:27:53;8.90;;;5.20;;
23800;SDS011;12081;48.614;10.226;2022-11-20T08:30:37;6.33;;;5.13;;
23800;SDS011;12081;48.614;10.226;2022-11-20T08:33:21;6.13;;;5.23;;
23800;SDS011;12081;48.614;10.226;2022-11-20T08:36:06;6.00;;;4.80;;
23800;SDS011;12081;48.614;10.226;2022-11-20T08:38:51;7.27;;;4.93;;
23800;SDS011;12081;48.614;10.226;2022-11-20T08:41:37;8.90;;;5.07;;
23800;SDS011;12081;48.614;10.226;2022-11-20T08:44:21;7.23;;;4.60;;
23800;SDS011;12081;48.614;10.226;2022-11-20T08:47:05;5.47;;;4.63;;
23800;SDS011;12081;48.614;10.226;2022-11-20T08:49:49;6.10;;;4.53;;
23800;SDS011;12081;48.614;10.226;2022-11-20T08:52:33;19.70;;;10.90;;
23800;SDS011;12081;48.614;10.226;2022-11-20T08:55:17;6.47;;;4.40;;
23800;SDS011;12081;48.614;10.226;2022-11-20T08:58:04;4.13;;;3.50;;
23800;SDS011;12081;48.614;10.226;2022-11-20T09:00:49;5.47;;;3.10;;
23800;SDS011;12081;48.614;10.226;2022-11-20T09:03:33;25.43;;;14.97;;
23800;SDS011;12081;48.614;10.226;2022-11-20T09:06:17;6.00;;;4.20;;
23800;SDS011;12081;48.614;10.226;2022-11-20T09:09:02;3.60;;;3.30;;
23800;SDS011;12081;48.614;10.226;2022-11-20T09:11:46;7.30;;;3.60;;
23800;SDS011;12081;48.614;10.226;2022-11-20T09:14:30;4.23;;;3.07;;
23800;SDS011;12081;48.614;10.226;2022-11-20T09:17:14;6.07;;;3.13;;
23800;SDS011;12081;48.614;10.226;2022-11-20T09:20:01;4.73;;;3.60;;
23800;SDS011;12081;48.614;10.226;2022-11-20T09:22:47;4.57;;;3.40;;
23800;SDS011;12081;48.614;10.226;2022-11-20T09:25:31;5.40;;;3.13;;
23800;SDS011;12081;48.614;10.226;2022-11-20T09:28:16;4.03;;;3.20;;
23800;SDS011;12081;48.614;10.226;2022-11-20T09:31:08;4.03;;;2.80;;
23800;SDS011;12081;48.614;10.226;2022-11-20T09:33:58;3.60;;;3.23;;
23800;SDS011;12081;48.614;10.226;2022-11-20T09:36:42;4.63;;;3.30;;
23800;SDS011;12081;48.614;10.226;2022-11-20T09:39:27;4.73;;;3.07;;
23800;SDS011;12081;48.614;10.226;2022-11-20T09:42:17;4.40;;;2.23;;
23800;SDS011;12081;48.614;10.226;2022-11-20T09:45:21;10.90;;;6.03;;
23800;SDS011;12081;48.614;10.226;2022-11-20T09:54:35;4.73;;;3.13;;
23800;SDS011;12081;48.614;10.226;2022-11-20T09:57:29;3.43;;;2.73;;
23800;SDS011;12081;48.614;10.226;2022-11-20T10:00:20;5.47;;;3.20;;
23800;SDS011;12081;48.614;10.226;2022-11-20T10:03:06;3.83;;;2.90;;
23800;SDS011;12081;48.614;10.226;2022-11-20T10:08:52;3.40;;;2.60;;
23800;SDS011;12081;48.614;10.226;2022-11-20T10:15:10;4.70;;;3.87;;
23800;SDS011;12081;48.614;10.226;2022-11-20T10:23:56;5.30;;;3.50;;
23800;SDS011;12081;48.614;10.226;2022-11-20T10:27:00;2.43;;;2.23;;
23800;SDS011;12081;48.614;10.226;2022-11-20T10:29:47;3.60;;;2.50;;
23800;SDS011;12081;48.614;10.226;2022-11-20T10:32:59;4.53;;;2.67;;
23800;SDS011;12081;48.614;10.226;2022-11-20T10:35:53;4.03;;;2.47;;
23800;SDS011;12081;48.614;10.226;2022-11-20T10:38:54;4.23;;;2.70;;
23800;SDS011;12081;48.614;10.226;2022-11-20T10:41:44;4.53;;;2.73;;
23800;SDS011;12081;48.614;10.226;2022-11-20T10:44:33;3.47;;;2.50;;
23800;SDS011;12081;48.614;10.226;2022-11-20T10:47:38;2.57;;;1.90;;
23800;SDS011;12081;48.614;10.226;2022-11-20T10:50:22;2.93;;;2.20;;
23800;SDS011;12081;48.614;10.226;2022-11-20T10:56:05;3.60;;;2.13;;
23800;SDS011;12081;48.614;10.226;2022-11-20T11:02:14;2.80;;;2.03;;
23800;SDS011;12081;48.614;10.226;2022-11-20T11:05:02;2.83;;;1.90;;
23800;SDS011;12081;48.614;10.226;2022-11-20T11:07:54;2.67;;;2.00;;
23800;SDS011;12081;48.614;10.226;2022-11-20T11:13:41;2.53;;;1.73;;
23800;SDS011;12081;48.614;10.226;2022-11-20T11:16:25;2.37;;;1.70;;
23800;SDS011;12081;48.614;10.226;2022-11-20T11:19:13;3.63;;;1.60;;
23800;SDS011;12081;48.614;10.226;2022-11-20T11:21:58;3.30;;;1.83;;
23800;SDS011;12081;48.614;10.226;2022-11-20T11:24:51;2.30;;;1.60;;
23800;SDS011;12081;48.614;10.226;2022-11-20T11:27:52;2.80;;;1.40;;
23800;SDS011;12081;48.614;10.226;2022-11-20T11:30:42;1.93;;;1.70;;
23800;SDS011;12081;48.614;10.226;2022-11-20T11:33:28;2.27;;;2.03;;
23800;SDS011;12081;48.614;10.226;2022-11-20T11:36:18;1.70;;;1.37;;
23800;SDS011;12081;48.614;10.226;2022-11-20T11:39:13;2.33;;;1.50;;
23800;SDS011;12081;48.614;10.226;2022-11-20T11:42:00;1.67;;;1.57;;
23800;SDS011;12081;48.614;10.226;2022-11-20T11:44:45;2.23;;;1.60;;
23800;SDS011;12081;48.614;10.226;2022-11-20T11:47:50;1.50;;;1.40;;
23800;SDS011;12081;48.614;10.226;2022-11-20T11:50:36;1.40;;;1.30;;
23800;SDS011;12081;48.614;10.226;2022-11-20T11:53:21;1.53;;;1.43;;
23800;SDS011;12081;48.614;10.226;2022-11-20T11:56:10;3.73;;;1.47;;
23800;SDS011;12081;48.614;10.226;2022-11-20T11:58:57;1.40;;;1.30;;
23800;SDS011;12081;48.614;10.226;2022-11-20T12:01:59;4.07;;;1.63;;
23800;SDS011;12081;48.614;10.226;2022-11-20T12:04:53;2.50;;;1.23;;
23800;SDS011;12081;48.614;10.226;2022-11-20T12:07:41;2.07;;;1.50;;
23800;SDS011;12081;48.614;10.226;2022-11-20T12:14:00;1.40;;;1.30;;
23800;SDS011;12081;48.614;10.226;2022-11-20T12:16:47;2.63;;;1.50;;
23800;SDS011;12081;48.614;10.226;2022-11-20T12:19:33;1.90;;;1.40;;
23800;SDS011;12081;48.614;10.226;2022-11-20T12:25:40;1.57;;;0.93;;
23800;SDS011;12081;48.614;10.226;2022-11-20T12:28:38;2.03;;;0.80;;
23800;SDS011;12081;48.614;10.226;2022-11-20T12:32:22;0.67;;;0.67;;
23800;SDS011;12081;48.614;10.226;2022-11-20T12:35:27;0.73;;;0.70;;
23800;SDS011;12081;48.614;10.226;2022-11-20T12:41:41;0.90;;;0.80;;
23800;SDS011;12081;48.614;10.226;2022-11-20T12:45:15;0.60;;;0.60;;
23800;SDS011;12081;48.614;10.226;2022-11-20T12:57:21;3.13;;;1.00;;
23800;SDS011;12081;48.614;10.226;2022-11-20T13:00:22;3.20;;;1.13;;
23800;SDS011;12081;48.614;10.226;2022-11-20T13:06:15;3.73;;;2.53;;
23800;SDS011;12081;48.614;10.226;2022-11-20T13:09:01;1.20;;;1.03;;
23800;SDS011;12081;48.614;10.226;2022-11-20T13:18:18;3.80;;;2.20;;
23800;SDS011;12081;48.614;10.226;2022-11-20T13:21:12;5.37;;;1.93;;
23800;SDS011;12081;48.614;10.226;2022-11-20T13:30:02;1.33;;;0.90;;
23800;SDS011;12081;48.614;10.226;2022-11-20T13:33:09;1.20;;;1.00;;
23800;SDS011;12081;48.614;10.226;2022-11-20T13:36:07;5.00;;;1.40;;
23800;SDS011;12081;48.614;10.226;2022-11-20T13:39:08;3.00;;;1.70;;
23800;SDS011;12081;48.614;10.226;2022-11-20T13:41:56;1.77;;;0.80;;
23800;SDS011;12081;48.614;10.226;2022-11-20T13:44:47;1.77;;;1.20;;
23800;SDS011;12081;48.614;10.226;2022-11-20T13:47:36;2.23;;;0.87;;
23800;SDS011;12081;48.614;10.226;2022-11-20T13:50:21;0.80;;;0.80;;
23800;SDS011;12081;48.614;10.226;2022-11-20T14:03:16;2.03;;;1.20;;
23800;SDS011;12081;48.614;10.226;2022-11-20T14:06:03;1.07;;;0.70;;
23800;SDS011;12081;48.614;10.226;2022-11-20T14:08:49;0.90;;;0.60;;
23800;SDS011;12081;48.614;10.226;2022-11-20T14:11:34;2.10;;;1.10;;
23800;SDS011;12081;48.614;10.226;2022-11-20T14:14:22;1.97;;;1.07;;
23800;SDS011;12081;48.614;10.226;2022-11-20T14:17:21;3.00;;;0.80;;
23800;SDS011;12081;48.614;10.226;2022-11-20T14:20:12;1.23;;;1.07;;
23800;SDS011;12081;48.614;10.226;2022-11-20T14:22:58;1.13;;;0.80;;
23800;SDS011;12081;48.614;10.226;2022-11-20T14:25:42;2.33;;;0.70;;
23800;SDS011;12081;48.614;10.226;2022-11-20T14:28:29;0.57;;;0.57;;
23800;SDS011;12081;48.614;10.226;2022-11-20T14:31:18;2.10;;;0.80;;
23800;SDS011;12081;48.614;10.226;2022-11-20T14:34:13;1.97;;;1.07;;
23800;SDS011;12081;48.614;10.226;2022-11-20T14:37:03;1.53;;;0.87;;
23800;SDS011;12081;48.614;10.226;2022-11-20T14:39:50;3.37;;;1.00;;
23800;SDS011;12081;48.614;10.226;2022-11-20T14:42:43;1.50;;;1.07;;
23800;SDS011;12081;48.614;10.226;2022-11-20T14:45:27;2.30;;;1.03;;
23800;SDS011;12081;48.614;10.226;2022-11-20T14:48:12;2.10;;;0.80;;
23800;SDS011;12081;48.614;10.226;2022-11-20T14:50:57;1.17;;;0.60;;
23800;SDS011;12081;48.614;10.226;2022-11-20T14:53:42;1.63;;;0.60;;
23800;SDS011;12081;48.614;10.226;2022-11-20T14:56:26;2.83;;;0.60;;
23800;SDS011;12081;48.614;10.226;2022-11-20T14:59:10;1.33;;;0.80;;
23800;SDS011;12081;48.614;10.226;2022-11-20T15:01:55;1.73;;;0.80;;
23800;SDS011;12081;48.614;10.226;2022-11-20T15:04:56;0.90;;;0.67;;
23800;SDS011;12081;48.614;10.226;2022-11-20T15:07:43;0.63;;;0.50;;
23800;SDS011;12081;48.614;10.226;2022-11-20T15:10:30;1.60;;;0.80;;
23800;SDS011;12081;48.614;10.226;2022-11-20T15:13:15;2.23;;;0.80;;
23800;SDS011;12081;48.614;10.226;2022-11-20T15:16:13;0.80;;;0.73;;
23800;SDS011;12081;48.614;10.226;2022-11-20T15:19:04;1.73;;;0.60;;
23800;SDS011;12081;48.614;10.226;2022-11-20T15:22:00;1.70;;;0.80;;
23800;SDS011;12081;48.614;10.226;2022-11-20T15:24:45;1.67;;;1.00;;
23800;SDS011;12081;48.614;10.226;2022-11-20T15:27:29;1.77;;;1.23;;
23800;SDS011;12081;48.614;10.226;2022-11-20T15:30:15;2.53;;;1.20;;
23800;SDS011;12081;48.614;10.226;2022-11-20T15:33:01;1.03;;;0.80;;
23800;SDS011;12081;48.614;10.226;2022-11-20T15:35:45;2.50;;;0.97;;
23800;SDS011;12081;48.614;10.226;2022-11-20T15:38:31;1.43;;;0.90;;
23800;SDS011;12081;48.614;10.226;2022-11-20T15:41:15;2.60;;;0.97;;
23800;SDS011;12081;48.614;10.226;2022-11-20T15:43:59;1.40;;;0.60;;
23800;SDS011;12081;48.614;10.226;2022-11-20T15:46:43;3.93;;;1.00;;
23800;SDS011;12081;48.614;10.226;2022-11-20T15:49:29;1.93;;;0.80;;
23800;SDS011;12081;48.614;10.226;2022-11-20T15:52:13;0.90;;;0.77;;
23800;SDS011;12081;48.614;10.226;2022-11-20T15:54:59;10.23;;;7.07;;
23800;SDS011;12081;48.614;10.226;2022-11-20T15:57:43;1.60;;;1.20;;
23800;SDS011;12081;48.614;10.226;2022-11-20T16:00:27;2.03;;;0.90;;
23800;SDS011;12081;48.614;10.226;2022-11-20T16:03:12;1.73;;;0.80;;
23800;SDS011;12081;48.614;10.226;2022-11-20T16:05:57;1.40;;;1.27;;
23800;SDS011;12081;48.614;10.226;2022-11-20T16:08:41;1.77;;;1.10;;
23800;SDS011;12081;48.614;10.226;2022-11-20T16:11:25;2.17;;;1.10;;
23800;SDS011;12081;48.614;10.226;2022-11-20T16:14:10;1.27;;;0.83;;
23800;SDS011;12081;48.614;10.226;2022-11-20T16:17:13;1.40;;;1.10;;
23800;SDS011;12081;48.614;10.226;2022-11-20T16:19:57;1.10;;;0.70;;
23800;SDS011;12081;48.614;10.226;2022-11-20T16:22:41;1.60;;;0.97;;
23800;SDS011;12081;48.614;10.226;2022-11-20T16:25:26;1.33;;;0.90;;
23800;SDS011;12081;48.614;10.226;2022-11-20T16:28:11;3.37;;;1.30;;
23800;SDS011;12081;48.614;10.226;2022-11-20T16:30:56;2.23;;;1.10;;
23800;SDS011;12081;48.614;10.226;2022-11-20T16:33:40;3.37;;;1.30;;
23800;SDS011;12081;48.614;10.226;2022-11-20T16:36:26;2.53;;;1.13;;
23800;SDS011;12081;48.614;10.226;2022-11-20T16:39:11;4.73;;;1.40;;
23800;SDS011;12081;48.614;10.226;2022-11-20T16:41:55;1.90;;;1.17;;
23800;SDS011;12081;48.614;10.226;2022-11-20T16:44:40;2.57;;;0.93;;
23800;SDS011;12081;48.614;10.226;2022-11-20T16:47:24;3.57;;;1.27;;
23800;SDS011;12081;48.614;10.226;2022-11-20T16:50:08;2.70;;;1.40;;
23800;SDS011;12081;48.614;10.226;2022-11-20T16:52:53;5.67;;;1.80;;
23800;SDS011;12081;48.614;10.226;2022-11-20T16:55:38;4.53;;;2.47;;
23800;SDS011;12081;48.614;10.226;2022-11-20T16:58:22;4.87;;;2.30;;
23800;SDS011;12081;48.614;10.226;2022-11-20T17:01:07;3.03;;;1.70;;
23800;SDS011;12081;48.614;10.226;2022-11-20T17:03:54;2.40;;;1.60;;
23800;SDS011;12081;48.614;10.226;2022-11-20T17:06:41;2.70;;;1.73;;
23800;SDS011;12081;48.614;10.226;2022-11-20T17:09:30;2.27;;;1.63;;
23800;SDS011;12081;48.614;10.226;2022-11-20T17:12:14;2.80;;;1.30;;
23800;SDS011;12081;48.614;10.226;2022-11-20T17:14:58;2.07;;;1.60;;
23800;SDS011;12081;48.614;10.226;2022-11-20T17:17:42;3.13;;;1.27;;
23800;SDS011;12081;48.614;10.226;2022-11-20T17:20:27;2.10;;;1.20;;
23800;SDS011;12081;48.614;10.226;2022-11-20T17:23:11;14.50;;;8.00;;
23800;SDS011;12081;48.614;10.226;2022-11-20T17:26:11;5.53;;;3.27;;
23800;SDS011;12081;48.614;10.226;2022-11-20T17:28:58;5.53;;;2.23;;
23800;SDS011;12081;48.614;10.226;2022-11-20T17:31:49;2.87;;;2.33;;
23800;SDS011;12081;48.614;10.226;2022-11-20T17:34:33;3.87;;;2.43;;
23800;SDS011;12081;48.614;10.226;2022-11-20T17:37:17;3.47;;;2.40;;
23800;SDS011;12081;48.614;10.226;2022-11-20T17:40:01;3.03;;;2.50;;
23800;SDS011;12081;48.614;10.226;2022-11-20T17:42:46;3.37;;;2.43;;
23800;SDS011;12081;48.614;10.226;2022-11-20T17:45:30;3.40;;;2.63;;
23800;SDS011;12081;48.614;10.226;2022-11-20T17:48:14;4.80;;;3.00;;
23800;SDS011;12081;48.614;10.226;2022-11-20T17:51:02;3.40;;;2.87;;